Informes METAR cercanos


LEVC - Manises, Valencia, ESPAÑA
Distance from station: NNE 72km
Actualización: 15/06/2021 04:30
Despejado
Despejado
 Viento del ONO
Viento: ONO 7 km/h
Temperatura: 20°C
Rocío: 15°C
Humedad: 73%
Barómetro: 1017 hPa
Resumen: Despejado
Visibility: Mas de 10 km
2021/06/15 02:30 LEVC 150230Z 30004KT CAVOK 20/15 Q1017 NOSIG
LEAL - El Altet, Alicante, ESPAÑA
Distance from station: S 70km
Actualización: 15/06/2021 04:30
Despejado
Despejado
 Viento del NNE
Viento: NNE 9 km/h
Temperatura: 23°C
Rocío: 10°C
Humedad: 44%
Barómetro: 1015 hPa
Resumen: Despejado
Visibility: Mas de 10 km
2021/06/15 02:30 LEAL 150230Z 02005KT CAVOK 23/10 Q1015 NOSIG
 
LELC - San Javier, Murcia, ESPAÑA
Distance from station: SSO 188km
Actualización: 15/06/2021 04:30
Despejado
Despejado
 Viento del N
Viento: N 7 km/h
Temperatura: 22°C
Rocío: 12°C
Humedad: 53%
Barómetro: 1015 hPa
Resumen: Despejado
Visibility: Mas de 10 km
2021/06/15 02:30 LELC 150230Z AUTO 35004KT CAVOK 22/12 Q1015
LEAB - Los Llanos, Albacete, ESPAÑA
Distance from station: O 143km
Actualización: 15/06/2021 04:30
Despejado
Despejado
 Viento del ENE
Viento: ENE 11 km/h
Temperatura: 18°C
Rocío: 7°C
Humedad: 49%
Barómetro: 1020 hPa
Resumen: Despejado
Visibility: Mas de 10 km
2021/06/15 02:30 LEAB 150230Z 07006KT CAVOK 18/07 Q1020 NOSIG